Time;durP1;ratioP1;P1;durP2;ratioP2;P2;SDS_P1;SDS_P2;PMS_P1;PMS_P2;Temp;Humidity;BMP_temperature;BMP_pressure;BME280_temperature;BME280_humidity;BME280_pressure;Samples;Min_cycle;Max_cycle;Signal;HPM_P1;HPM_P2
2022/08/17 00:01:17;;;;;;;6.23;5.67;;;;;;;21.90;53.04;98702.63;4970925;28;20437;-90
2022/08/17 00:03:49;;;;;;;6.60;6.00;;;;;;;21.88;52.86;98706.34;4975355;28;20439;-89
2022/08/17 00:06:26;;;;;;;6.07;5.57;;;;;;;21.90;52.82;98713.31;4971695;28;20450;-89
2022/08/17 00:08:57;;;;;;;6.20;5.60;;;;;;;21.92;52.95;98720.13;4973681;28;20585;-89
2022/08/17 00:11:34;;;;;;;6.63;6.03;;;;;;;21.95;52.71;98722.41;4973830;28;20413;-90
2022/08/17 00:14:07;;;;;;;5.93;5.43;;;;;;;22.00;52.83;98737.91;4968964;28;20440;-88
2022/08/17 00:16:43;;;;;;;8.10;7.30;;;;;;;22.00;52.98;98751.25;4974339;28;20517;-89
2022/08/17 00:19:19;;;;;;;6.83;6.33;;;;;;;21.93;52.92;98769.94;4972967;28;20437;-90
2022/08/17 00:21:56;;;;;;;7.03;6.33;;;;;;;21.82;53.26;98781.13;4969012;28;20405;-89
2022/08/17 00:24:22;;;;;;;6.33;5.67;;;;;;;21.73;53.42;98785.75;4967961;28;20478;-90
2022/08/17 00:26:47;;;;;;;6.53;5.90;;;;;;;21.72;53.70;98802.00;4967149;28;20425;-89
2022/08/17 00:29:19;;;;;;;6.60;6.00;;;;;;;21.69;53.43;98808.56;4966588;28;20195;-89
2022/08/17 00:31:45;;;;;;;8.20;6.93;;;;;;;21.66;53.66;98800.91;4975390;28;20449;-89
2022/08/17 00:34:10;;;;;;;6.37;5.60;;;;;;;21.68;53.40;98806.88;4979262;28;20463;-89
2022/08/17 00:36:36;;;;;;;6.50;5.90;;;;;;;21.72;53.15;98813.50;4982914;28;20207;-90
2022/08/17 00:39:03;;;;;;;6.37;5.77;;;;;;;21.78;53.14;98822.63;4985576;28;20703;-90
2022/08/17 00:41:29;;;;;;;7.07;6.47;;;;;;;21.81;52.84;98819.56;4983166;28;20201;-91
2022/08/17 00:44:00;;;;;;;8.60;6.40;;;;;;;21.86;53.05;98820.66;4978887;28;20491;-89
2022/08/17 00:46:37;;;;;;;7.97;7.17;;;;;;;21.91;53.21;98813.91;4964148;28;20195;-88
2022/08/17 00:49:03;;;;;;;6.17;5.67;;;;;;;21.95;53.31;98833.91;4969973;28;20427;-90
2022/08/17 00:51:34;;;;;;;8.60;6.57;;;;;;;21.95;53.93;98821.34;4968945;28;21008;-88
2022/08/17 00:53:59;;;;;;;7.87;7.07;;;;;;;21.97;53.96;98819.31;4972295;28;20952;-88
2022/08/17 00:56:37;;;;;;;7.80;7.10;;;;;;;22.01;53.92;98833.16;4979307;28;20470;-87
2022/08/17 00:59:05;;;;;;;7.83;7.00;;;;;;;22.04;53.81;98833.59;4967039;28;20203;-89
2022/08/17 01:01:32;;;;;;;7.40;6.80;;;;;;;22.06;54.19;98852.97;4983111;28;20955;-89
2022/08/17 01:03:58;;;;;;;10.02;7.88;;;;;;;22.14;54.62;98838.63;4967827;28;20466;-89
2022/08/17 01:06:24;;;;;;;7.73;7.03;;;;;;;22.16;54.86;98836.59;4983387;28;20689;-89
2022/08/17 01:08:53;;;;;;;7.27;6.57;;;;;;;22.19;54.89;98843.44;4964951;28;20477;-88
2022/08/17 01:11:19;;;;;;;8.90;8.10;;;;;;;22.22;54.48;98846.53;4971533;28;20589;-88
2022/08/17 01:13:47;;;;;;;8.37;7.57;;;;;;;22.25;54.91;98843.50;4976395;28;20455;-89
2022/08/17 01:16:15;;;;;;;8.53;7.53;;;;;;;22.29;54.77;98847.44;4970360;28;21418;-88
2022/08/17 01:18:43;;;;;;;8.40;7.70;;;;;;;22.31;54.73;98856.13;4969238;28;20450;-89
2022/08/17 01:21:32;;;;;;;8.50;7.60;;;;;;;22.31;55.19;98860.66;4972274;28;20219;-89
2022/08/17 01:23:59;;;;;;;7.90;7.20;;;;;;;22.30;55.26;98856.28;4973003;28;20495;-88
2022/08/17 01:26:25;;;;;;;8.27;7.07;;;;;;;22.30;55.38;98857.16;4990826;28;20468;-88
2022/08/17 01:28:52;;;;;;;10.20;8.07;;;;;;;22.33;55.34;98869.28;4976789;28;20472;-90
2022/08/17 01:31:18;;;;;;;7.47;6.83;;;;;;;22.34;55.64;98860.25;4986254;28;20527;-89
2022/08/17 01:33:47;;;;;;;9.30;8.30;;;;;;;22.41;55.72;98862.97;4988137;28;20445;-89
2022/08/17 01:36:12;;;;;;;8.23;7.53;;;;;;;22.42;56.18;98853.94;4977009;28;20547;-89
2022/08/17 01:38:38;;;;;;;8.70;7.80;;;;;;;22.43;56.47;98853.75;4982140;28;20209;-89
2022/08/17 01:41:12;;;;;;;9.73;8.13;;;;;;;22.45;56.29;98851.72;4970094;28;20211;-89
2022/08/17 01:43:53;;;;;;;8.40;7.57;;;;;;;22.48;56.40;98853.19;4976372;28;20463;-89
2022/08/17 01:46:32;;;;;;;9.30;6.90;;;;;;;22.48;57.13;98861.19;4967965;28;20473;-88
2022/08/17 01:48:59;;;;;;;8.17;7.47;;;;;;;22.47;56.84;98871.09;4944343;28;20911;-87
2022/08/17 01:51:33;;;;;;;8.80;8.00;;;;;;;22.45;56.93;98867.75;4929361;29;20471;-87
2022/08/17 01:54:05;;;;;;;7.70;6.97;;;;;;;22.47;57.07;98864.91;4927786;29;20431;-88
2022/08/17 01:56:32;;;;;;;8.10;7.30;;;;;;;22.52;56.87;98854.44;4926321;29;20466;-88
2022/08/17 01:58:58;;;;;;;9.20;7.23;;;;;;;22.59;56.66;98841.13;4932836;29;20487;-88
2022/08/17 02:01:28;;;;;;;8.70;7.90;;;;;;;22.63;56.50;98843.22;4929193;28;20473;-89
2022/08/17 02:03:54;;;;;;;9.50;8.43;;;;;;;22.71;56.27;98837.72;4929972;28;20903;-88
2022/08/17 02:06:20;;;;;;;9.33;8.43;;;;;;;22.73;56.38;98832.16;4947510;28;20238;-88
2022/08/17 02:08:46;;;;;;;7.40;6.43;;;;;;;22.76;56.15;98837.13;4935947;29;21453;-88
2022/08/17 02:11:17;;;;;;;7.93;7.23;;;;;;;22.79;56.30;98835.91;4933663;28;20234;-89
2022/08/17 02:13:45;;;;;;;7.97;6.83;;;;;;;22.80;56.22;98832.22;4933321;29;20444;-89
2022/08/17 02:16:13;;;;;;;8.37;7.73;;;;;;;22.81;56.43;98837.38;4933141;29;20442;-90
2022/08/17 02:18:38;;;;;;;7.53;6.90;;;;;;;22.81;56.30;98842.72;4936254;28;20450;-89
2022/08/17 02:21:10;;;;;;;8.13;7.43;;;;;;;22.79;56.71;98851.97;4939062;29;20462;-89
2022/08/17 02:23:47;;;;;;;7.90;7.20;;;;;;;22.77;56.83;98864.75;4935905;29;20649;-90
2022/08/17 02:26:13;;;;;;;9.47;8.27;;;;;;;22.76;56.59;98866.56;4948080;28;20796;-90
2022/08/17 02:28:39;;;;;;;8.60;7.73;;;;;;;22.73;56.74;98862.44;4948091;28;20427;-90
2022/08/17 02:31:07;;;;;;;9.30;8.23;;;;;;;22.69;56.93;98863.03;4934424;28;20474;-89
2022/08/17 02:33:33;;;;;;;8.00;7.40;;;;;;;22.70;57.01;98873.53;4932359;29;20196;-89
2022/08/17 02:36:03;;;;;;;9.03;8.13;;;;;;;22.69;57.28;98869.22;4936281;28;20432;-90
2022/08/17 02:38:30;;;;;;;9.20;8.30;;;;;;;22.70;57.07;98870.03;4935472;28;20433;-90
2022/08/17 02:40:57;;;;;;;9.20;8.40;;;;;;;22.71;56.93;98877.03;4932426;28;21016;-89
2022/08/17 02:43:27;;;;;;;9.37;8.23;;;;;;;22.72;57.06;98878.69;4931106;29;20595;-89
2022/08/17 02:45:53;;;;;;;8.70;7.80;;;;;;;22.72;56.97;98870.66;4926032;28;21046;-89
2022/08/17 02:48:22;;;;;;;9.73;8.50;;;;;;;22.70;57.08;98875.38;4935398;29;20459;-89
2022/08/17 02:50:48;;;;;;;10.00;9.03;;;;;;;22.63;57.29;98885.19;4938206;29;20425;-88
2022/08/17 02:53:14;;;;;;;8.50;7.70;;;;;;;22.57;57.71;98897.50;4934170;29;20813;-90
2022/08/17 02:55:43;;;;;;;9.07;8.27;;;;;;;22.55;57.99;98904.91;4934045;28;20500;-89
2022/08/17 02:58:10;;;;;;;8.90;8.10;;;;;;;22.54;57.92;98903.25;4940194;29;20443;-89
2022/08/17 03:00:40;;;;;;;8.50;7.70;;;;;;;22.56;57.85;98921.81;4933167;28;20467;-90
2022/08/17 03:03:06;;;;;;;9.20;8.17;;;;;;;22.57;57.78;98926.13;4938428;28;20816;-89
2022/08/17 03:05:35;;;;;;;9.90;8.13;;;;;;;22.58;57.89;98931.31;4934788;28;20990;-88
2022/08/17 03:08:01;;;;;;;8.97;7.80;;;;;;;22.61;57.69;98924.72;4936244;29;20426;-89
2022/08/17 03:10:29;;;;;;;9.37;7.80;;;;;;;22.57;57.39;98932.31;4935718;29;20460;-90
2022/08/17 03:12:55;;;;;;;8.03;7.30;;;;;;;22.51;57.80;98933.91;4947727;28;20528;-90
2022/08/17 03:15:32;;;;;;;9.80;8.80;;;;;;;22.43;57.74;98927.84;4933050;28;20441;-90
2022/08/17 03:18:00;;;;;;;12.03;7.27;;;;;;;22.39;57.76;98927.41;4931838;29;20424;-90
2022/08/17 03:20:27;;;;;;;12.23;8.53;;;;;;;22.39;57.87;98931.94;4934241;29;20412;-90
2022/08/17 03:22:55;;;;;;;8.87;8.07;;;;;;;22.40;57.98;98944.28;4932457;28;20456;-89
2022/08/17 03:25:27;;;;;;;9.57;7.37;;;;;;;22.39;57.93;98956.03;4937714;28;20990;-90
2022/08/17 03:27:56;;;;;;;9.77;8.93;;;;;;;22.38;58.02;98946.31;4934404;29;20772;-89
2022/08/17 03:30:26;;;;;;;10.80;9.50;;;;;;;22.39;58.06;98954.16;4930576;29;20489;-90
2022/08/17 03:33:00;;;;;;;14.10;9.70;;;;;;;22.41;57.98;98957.47;4927181;29;20531;-89
2022/08/17 03:35:30;;;;;;;9.63;8.83;;;;;;;22.42;58.17;98963.66;4929732;29;20454;-89
2022/08/17 03:37:57;;;;;;;11.03;9.83;;;;;;;22.42;57.93;98961.00;4937656;29;20451;-89
2022/08/17 03:40:23;;;;;;;12.37;8.73;;;;;;;22.42;57.97;98958.31;4938799;28;20591;-89
2022/08/17 03:42:52;;;;;;;15.87;10.50;;;;;;;22.41;57.99;98956.63;4929278;28;20906;-90
2022/08/17 03:56:41;;;;;;;9.37;8.60;;;;;;;22.41;57.91;98953.97;4931375;29;20473;-89
2022/08/17 03:56:48;;;;;;;9.53;8.40;;;;;;;22.44;58.16;98908.09;4934310;29;21010;-89
2022/08/17 03:59:17;;;;;;;9.07;8.27;;;;;;;22.42;58.31;98894.91;4936368;28;20440;-89
2022/08/17 04:01:44;;;;;;;9.77;8.57;;;;;;;22.44;58.60;98876.81;4929975;29;20430;-89
2022/08/17 04:04:11;;;;;;;9.97;8.83;;;;;;;22.47;59.38;98897.03;4930033;29;20459;-90
2022/08/17 04:06:42;;;;;;;9.80;8.97;;;;;;;22.47;59.76;98902.38;4940577;28;20458;-89
2022/08/17 04:09:11;;;;;;;10.53;8.37;;;;;;;22.44;60.42;98902.72;4934258;28;20915;-89
2022/08/17 04:11:37;;;;;;;9.60;8.60;;;;;;;22.34;60.87;98916.44;4952944;28;20582;-90
2022/08/17 04:14:08;;;;;;;9.63;8.30;;;;;;;22.31;61.19;98919.50;4958115;28;20458;-91
2022/08/17 04:16:35;;;;;;;9.40;8.40;;;;;;;22.29;61.47;98911.66;4975973;28;20474;-92
2022/08/17 04:19:03;;;;;;;10.10;8.70;;;;;;;22.26;61.52;98906.69;4960020;28;20847;-90
2022/08/17 04:21:42;;;;;;;10.37;9.27;;;;;;;22.22;62.06;98910.75;4949572;29;20496;-90
2022/08/17 04:24:14;;;;;;;11.00;9.63;;;;;;;22.18;62.57;98914.84;4937480;29;20491;-90
2022/08/17 04:26:45;;;;;;;9.13;8.23;;;;;;;22.13;62.93;98906.50;4929482;29;20473;-90
2022/08/17 04:29:13;;;;;;;9.80;8.90;;;;;;;22.09;63.33;98910.59;4936867;28;20429;-90
2022/08/17 04:31:39;;;;;;;13.43;11.40;;;;;;;22.07;64.63;98904.59;4937348;28;20476;-91
2022/08/17 04:34:10;;;;;;;9.97;8.80;;;;;;;21.98;65.22;98908.38;4938149;28;20202;-91
2022/08/17 04:36:39;;;;;;;11.10;10.10;;;;;;;21.86;65.39;98906.22;4933970;29;20681;-90
2022/08/17 04:39:22;;;;;;;11.50;10.30;;;;;;;21.75;65.89;98901.34;4933152;28;20474;-90
2022/08/17 04:42:15;;;;;;;;;;;;;;;;;;;;;
2022/08/17 04:44:49;;;;;;;11.40;8.70;;;;;;;21.51;66.98;98901.66;4934252;29;20480;-91
2022/08/17 04:47:17;;;;;;;9.07;8.07;;;;;;;21.42;67.42;98906.25;4934710;29;20435;-90
2022/08/17 04:49:43;;;;;;;10.43;7.80;;;;;;;21.39;67.53;98920.81;4939988;29;20835;-90
2022/08/17 04:52:09;;;;;;;9.37;8.37;;;;;;;21.42;67.33;98941.81;4935394;29;20248;-91
2022/08/17 04:54:35;;;;;;;9.30;8.40;;;;;;;21.45;67.36;98945.16;4936428;28;20225;-90
2022/08/17 04:57:07;;;;;;;9.80;8.93;;;;;;;21.41;67.19;98972.22;4943273;28;20855;-89
2022/08/17 04:59:32;;;;;;;8.80;7.93;;;;;;;21.41;67.38;98987.41;4944518;29;20195;-91
2022/08/17 05:01:58;;;;;;;8.87;7.97;;;;;;;21.42;67.66;98986.41;4933774;28;20426;-91
2022/08/17 05:04:24;;;;;;;11.07;9.70;;;;;;;21.39;67.85;98982.28;4937932;28;20314;-90
2022/08/17 05:06:53;;;;;;;10.47;9.43;;;;;;;21.40;68.22;98977.75;4931922;29;20195;-90
2022/08/17 05:09:18;;;;;;;13.63;10.23;;;;;;;21.40;68.38;98981.25;4935777;28;20502;-91
2022/08/17 05:11:45;;;;;;;9.77;8.90;;;;;;;21.41;68.67;98995.44;4936304;29;20434;-90
2022/08/17 05:14:11;;;;;;;12.63;10.13;;;;;;;21.41;69.25;99006.97;4949729;28;20222;-90
2022/08/17 05:16:37;;;;;;;10.53;9.53;;;;;;;21.41;69.35;99022.16;4930929;28;20533;-89
2022/08/17 05:19:02;;;;;;;10.97;9.43;;;;;;;21.34;69.75;99006.00;4931586;28;20435;-91
2022/08/17 05:21:28;;;;;;;11.40;10.27;;;;;;;21.30;70.22;98966.47;4923425;28;20190;-90
2022/08/17 05:23:57;;;;;;;10.67;9.67;;;;;;;21.27;70.26;98950.81;4930526;28;20234;-91
2022/08/17 05:26:24;;;;;;;10.50;8.83;;;;;;;21.25;70.44;98950.97;4921797;29;20487;-92
2022/08/17 05:28:50;;;;;;;10.07;8.83;;;;;;;21.25;70.68;98961.66;4931029;29;20469;-92
2022/08/17 05:31:19;;;;;;;10.53;9.43;;;;;;;21.28;70.28;98969.34;4925871;29;20470;-91
2022/08/17 05:33:48;;;;;;;14.43;10.00;;;;;;;21.32;70.20;98981.28;4927899;28;20185;-92
2022/08/17 05:36:14;;;;;;;11.50;9.63;;;;;;;21.36;70.52;98960.38;4928803;29;20508;-92
2022/08/17 05:38:42;;;;;;;12.40;10.90;;;;;;;21.34;71.32;98960.59;4929702;29;20951;-93
2022/08/17 05:41:10;;;;;;;11.93;10.17;;;;;;;21.33;71.32;98947.41;4928924;28;20459;-92
2022/08/17 05:43:39;;;;;;;15.10;12.33;;;;;;;21.29;72.03;98940.78;4926892;29;21111;-90
2022/08/17 05:46:16;;;;;;;13.73;10.60;;;;;;;21.25;72.40;98926.09;4941559;28;20527;-90
2022/08/17 05:48:45;;;;;;;15.10;11.20;;;;;;;21.18;73.03;98904.66;4926300;29;20429;-91
2022/08/17 05:51:31;;;;;;;13.60;12.10;;;;;;;21.18;73.60;98884.13;4929933;29;21045;-90
2022/08/17 05:54:05;;;;;;;13.60;12.07;;;;;;;21.23;74.08;98856.88;4925891;29;20413;-91
2022/08/17 05:56:52;;;;;;;11.57;9.73;;;;;;;21.56;73.03;98859.16;4940499;28;20416;-91
2022/08/17 05:59:42;;;;;;;12.60;10.83;;;;;;;22.00;70.90;98852.88;4934269;28;20552;-91
2022/08/17 06:02:40;;;;;;;10.47;9.40;;;;;;;22.19;69.91;98857.63;4925829;28;20421;-93
2022/08/17 06:05:24;;;;;;;14.80;12.07;;;;;;;22.18;69.54;98873.84;4917006;29;20502;-91
2022/08/17 06:08:11;;;;;;;11.73;8.50;;;;;;;22.12;69.26;98866.59;4924480;29;20788;-90
2022/08/17 06:10:46;;;;;;;10.87;9.77;;;;;;;21.96;69.48;98862.31;4941177;28;20482;-92
2022/08/17 06:13:14;;;;;;;9.13;8.23;;;;;;;21.85;69.68;98861.78;4943170;28;20419;-91
2022/08/17 06:16:00;;;;;;;9.10;8.23;;;;;;;21.76;69.69;98865.56;4927387;29;20434;-92
2022/08/17 06:18:38;;;;;;;9.80;8.20;;;;;;;21.62;70.29;98871.78;4926961;29;20979;-90
2022/08/17 06:21:07;;;;;;;9.53;8.50;;;;;;;21.55;70.47;98865.50;4944930;28;20913;-91
2022/08/17 06:23:37;;;;;;;10.13;8.20;;;;;;;21.52;70.72;98852.53;4932901;29;20448;-92
2022/08/17 06:26:11;;;;;;;10.13;8.63;;;;;;;21.52;70.41;98841.84;4935217;29;20426;-91
2022/08/17 06:28:46;;;;;;;12.17;8.97;;;;;;;21.48;70.76;98840.56;4933097;28;20427;-92
2022/08/17 06:31:21;;;;;;;9.83;8.70;;;;;;;21.39;70.90;98832.66;4940228;29;20474;-93
2022/08/17 06:33:59;;;;;;;9.70;8.70;;;;;;;21.33;71.13;98838.72;4945361;29;20551;-93
2022/08/17 06:36:33;;;;;;;10.07;8.93;;;;;;;21.37;70.92;98834.69;4944431;29;20495;-91
2022/08/17 06:39:21;;;;;;;9.27;8.37;;;;;;;21.39;70.88;98835.34;4943933;29;21291;-92
2022/08/17 06:42:28;;;;;;;10.30;9.30;;;;;;;21.37;70.82;98832.00;4936913;29;21028;-92
2022/08/17 06:45:35;;;;;;;9.27;8.30;;;;;;;21.27;70.98;98834.09;4935233;29;21071;-92
2022/08/17 06:48:23;;;;;;;8.20;7.50;;;;;;;21.29;70.67;98845.44;4936979;29;20502;-93
2022/08/17 06:51:54;;;;;;;9.50;8.60;;;;;;;21.34;70.58;98853.72;4946220;28;20455;-93
2022/08/17 06:55:15;;;;;;;;;;;;;;;;;;;;;
2022/08/17 06:57:57;;;;;;;8.40;7.60;;;;;;;21.53;70.01;98892.44;4944425;29;20507;-92
2022/08/17 07:00:42;;;;;;;;;;;;;;;;;;;;;
2022/08/17 07:11:28;;;;;;;8.87;7.60;;;;;;;21.65;70.32;98884.75;4948908;29;21726;-94
2022/08/17 07:15:14;;;;;;;9.93;7.90;;;;;;;21.69;70.09;98883.38;4945838;28;20507;-90
2022/08/17 07:17:51;;;;;;;9.63;8.17;;;;;;;21.73;70.36;98916.72;4925864;29;20440;-93
2022/08/17 07:20:21;;;;;;;9.43;8.53;;;;;;;21.76;70.37;98889.63;4945561;29;20833;-93
2022/08/17 07:23:48;;;;;;;;;;;;;;;;;;;;;
2022/08/17 07:26:48;;;;;;;10.17;8.30;;;;;;;21.82;70.52;98882.72;4954722;29;20440;-92
2022/08/17 07:29:25;;;;;;;8.90;7.50;;;;;;;21.83;70.56;98876.34;4941045;29;20417;-91
2022/08/17 07:32:08;;;;;;;;;;;;;;;;;;;;;
2022/08/17 07:35:07;;;;;;;10.77;9.07;;;;;;;21.84;70.62;98859.28;4954137;29;20407;-92
2022/08/17 07:37:44;;;;;;;9.43;8.47;;;;;;;21.62;71.54;98829.00;4942969;28;20420;-89
2022/08/17 07:40:25;;;;;;;11.37;10.27;;;;;;;21.58;72.00;98827.75;4946900;29;20850;-92
2022/08/17 07:43:29;;;;;;;8.37;7.67;;;;;;;21.56;71.96;98843.97;4970647;28;20494;-92
2022/08/17 08:05:58;;;;;;;;;;;;;;;;;;;;;
2022/08/17 08:08:49;;;;;;;9.10;8.20;;;;;;;22.49;71.51;98900.31;4849113;29;20244;-93
2022/08/17 08:12:01;;;;;;;9.80;8.40;;;;;;;22.85;70.19;98904.75;4852171;29;20473;-92
2022/08/17 08:19:18;;;;;;;;;;;;;;;;;;;;;
2022/08/17 08:22:01;;;;;;;9.70;8.70;;;;;;;24.21;65.22;98918.53;4936623;29;20557;-92
2022/08/17 08:24:32;;;;;;;8.27;7.50;;;;;;;24.19;65.30;98917.88;4936693;28;20841;-91
2022/08/17 08:27:43;;;;;;;8.00;7.30;;;;;;;24.18;65.02;98933.16;4931338;28;20473;-92
2022/08/17 08:30:13;;;;;;;6.97;6.30;;;;;;;24.14;64.22;98936.44;4948596;28;20458;-91
2022/08/17 08:33:49;;;;;;;;;;;;;;;;;;;;;
2022/08/17 08:36:45;;;;;;;7.90;7.10;;;;;;;24.03;64.24;98940.53;4907567;29;20943;-92
2022/08/17 08:40:08;;;;;;;7.40;6.53;;;;;;;24.15;63.97;98930.06;4935562;29;20482;-92
2022/08/17 08:43:04;;;;;;;6.10;5.57;;;;;;;24.33;62.81;98935.69;4933397;28;20463;-93
2022/08/17 08:45:39;;;;;;;7.87;5.70;;;;;;;24.42;62.21;98955.94;4934229;29;20491;-92
2022/08/17 08:48:38;;;;;;;6.60;5.67;;;;;;;24.53;61.58;98964.47;4939099;28;20465;-93
2022/08/17 08:51:45;;;;;;;;;;;;;;;;;;;;;
2022/08/17 08:55:07;;;;;;;6.90;6.13;;;;;;;24.25;62.06;98976.16;4955472;29;20800;-93
2022/08/17 08:57:55;;;;;;;7.80;7.00;;;;;;;24.10;62.54;98983.50;4959997;29;20442;-92
2022/08/17 09:00:57;;;;;;;7.77;6.97;;;;;;;23.96;63.12;98991.50;4958861;28;20481;-92
2022/08/17 09:04:17;;;;;;;9.00;7.13;;;;;;;23.81;63.87;99001.50;4951812;28;20450;-91
2022/08/17 09:07:32;;;;;;;8.07;6.93;;;;;;;23.64;64.71;99084.91;4934295;29;20471;-91
2022/08/17 09:10:23;;;;;;;10.80;8.40;;;;;;;23.46;65.68;99095.28;4932346;29;20464;-91
2022/08/17 09:13:13;;;;;;;10.23;7.73;;;;;;;23.24;66.65;99107.06;4938899;29;21000;-93
2022/08/17 09:16:33;;;;;;;13.40;9.60;;;;;;;23.08;67.19;99119.66;4933820;29;20576;-93
2022/08/17 09:19:30;;;;;;;11.77;8.63;;;;;;;22.93;67.77;99111.66;4940959;29;20437;-92
2022/08/17 09:22:38;;;;;;;10.07;8.60;;;;;;;22.84;68.10;99122.66;4940449;29;20419;-91
2022/08/17 09:25:17;;;;;;;9.13;8.13;;;;;;;22.78;68.22;99134.13;4930044;28;20626;-93
2022/08/17 09:28:04;;;;;;;;;;;;;;;;;;;;;
2022/08/17 09:31:20;;;;;;;;;;;;;;;;;;;;;
2022/08/17 09:34:48;;;;;;;;;;;;;;;;;;;;;
2022/08/17 09:37:28;;;;;;;10.70;8.77;;;;;;;22.56;69.45;99119.88;4928414;28;20541;-92
2022/08/17 09:40:11;;;;;;;10.17;8.50;;;;;;;22.59;69.33;99128.34;4929776;29;20871;-92
2022/08/17 09:42:49;;;;;;;9.87;8.90;;;;;;;22.60;69.43;99135.38;4925979;28;20513;-91
2022/08/17 09:45:27;;;;;;;9.60;8.70;;;;;;;22.61;69.72;99129.00;4928846;29;20487;-90
2022/08/17 09:47:58;;;;;;;11.40;9.40;;;;;;;22.62;69.81;99122.63;4928735;29;20492;-91
2022/08/17 09:51:19;;;;;;;11.00;9.90;;;;;;;22.61;69.68;99112.94;4933345;29;20416;-89
2022/08/17 09:54:00;;;;;;;9.57;8.33;;;;;;;22.61;69.54;99086.16;4938350;28;20449;-90
2022/08/17 09:56:49;;;;;;;10.10;9.20;;;;;;;22.56;70.53;99085.91;4946725;28;21076;-91
2022/08/17 09:59:26;;;;;;;11.40;10.20;;;;;;;22.51;70.64;99088.31;4954722;28;20456;-90
2022/08/17 10:02:28;;;;;;;12.27;8.63;;;;;;;22.41;71.58;99095.78;4957392;28;20470;-90
2022/08/17 10:05:29;;;;;;;13.33;10.90;;;;;;;22.40;71.62;99078.09;4947836;28;20486;-91
2022/08/17 10:08:00;;;;;;;10.20;9.10;;;;;;;22.41;72.11;99063.69;4942124;28;20515;-91
2022/08/17 10:11:07;;;;;;;12.43;10.60;;;;;;;22.35;72.55;99049.19;4948319;28;20437;-90
2022/08/17 10:14:03;;;;;;;11.67;10.10;;;;;;;22.32;72.76;99049.56;4944893;28;20482;-90
2022/08/17 10:16:38;;;;;;;11.43;10.33;;;;;;;22.41;73.00;99036.91;4948079;28;20440;-92
2022/08/17 10:19:25;;;;;;;11.43;10.33;;;;;;;22.52;72.77;99005.16;4955965;28;20498;-90
2022/08/17 10:27:47;;;;;;;13.07;11.27;;;;;;;22.65;72.83;98977.69;4946239;28;20461;-91
2022/08/17 10:30:17;;;;;;;18.40;10.30;;;;;;;22.72;72.87;98981.25;4949249;28;20430;-91
2022/08/17 10:33:16;;;;;;;13.37;10.70;;;;;;;22.83;72.41;98982.59;4934102;29;20472;-89
2022/08/17 10:35:55;;;;;;;10.63;9.63;;;;;;;22.97;71.74;98984.41;4906246;29;20802;-91
2022/08/17 10:43:21;;;;;;;10.03;8.73;;;;;;;23.29;69.91;98992.09;4920598;29;20476;-93
2022/08/17 10:49:46;;;;;;;9.73;8.87;;;;;;;23.82;68.31;98990.59;4913112;29;20683;-92
2022/08/17 10:52:31;;;;;;;;;;;;;;;;;;;;;
2022/08/17 10:55:17;;;;;;;8.87;7.70;;;;;;;24.10;66.63;98997.75;4926673;29;20482;-92
2022/08/17 10:58:19;;;;;;;8.60;7.73;;;;;;;24.22;66.31;99004.22;4944756;29;20580;-93
2022/08/17 11:01:21;;;;;;;7.80;7.07;;;;;;;24.34;65.93;98996.41;4940629;29;20549;-92
2022/08/17 11:03:53;;;;;;;12.20;6.87;;;;;;;24.47;65.00;99004.53;4936427;29;20947;-92
2022/08/17 11:06:46;;;;;;;7.47;6.80;;;;;;;24.61;63.87;99000.00;4947274;29;20460;-92
2022/08/17 11:10:00;;;;;;;8.17;6.77;;;;;;;24.89;62.29;99001.69;4927315;29;20459;-93
2022/08/17 11:12:55;;;;;;;;;;;;;;;;;;;;;
2022/08/17 11:15:53;;;;;;;8.43;7.50;;;;;;;25.43;60.06;99000.69;4940926;29;20455;-90
2022/08/17 11:18:49;;;;;;;7.30;6.53;;;;;;;25.58;59.72;99005.88;4930306;29;20467;-91
2022/08/17 11:21:54;;;;;;;5.63;5.13;;;;;;;25.68;58.02;98994.66;4912159;29;20445;-92
2022/08/17 11:24:54;;;;;;;5.07;4.67;;;;;;;25.76;57.79;98995.28;4931369;29;20475;-92
2022/08/17 11:27:54;;;;;;;;;;;;;;;;;;;;;
2022/08/17 11:30:49;;;;;;;5.53;4.90;;;;;;;25.96;56.31;98989.84;4937191;28;21101;-92
2022/08/17 11:33:32;;;;;;;5.80;5.20;;;;;;;26.05;55.96;98979.69;4962566;28;21022;-89
2022/08/17 11:36:36;;;;;;;6.27;5.77;;;;;;;26.12;55.11;98975.09;4971981;28;20438;-91
2022/08/17 11:39:38;;;;;;;5.37;4.87;;;;;;;26.21;55.28;98965.72;4969364;28;20487;-91
2022/08/17 11:42:50;;;;;;;5.10;4.53;;;;;;;26.22;55.35;98970.09;4966342;28;20555;-91
2022/08/17 11:46:03;;;;;;;;;;;;;;;;;;;;;
2022/08/17 11:52:53;;;;;;;;;;;;;;;;;;;;;
2022/08/17 11:55:55;;;;;;;;;;;;;;;;;;;;;
2022/08/17 11:59:45;;;;;;;5.43;4.80;;;;;;;26.98;50.96;98951.38;4961821;28;20572;-92
2022/08/17 12:03:20;;;;;;;5.23;4.73;;;;;;;27.20;50.00;98952.69;4965106;28;20462;-92
2022/08/17 12:06:56;;;;;;;;;;;;;;;;;;;;;
2022/08/17 12:10:32;;;;;;;;;;;;;;;;;;;;;
2022/08/17 12:13:54;;;;;;;;;;;;;;;;;;;;;
2022/08/17 12:16:44;;;;;;;5.07;4.57;;;;;;;27.63;46.68;98934.84;4855817;28;20533;-91
2022/08/17 12:20:24;;;;;;;;;;;;;;;;;;;;;
2022/08/17 12:23:24;;;;;;;;;;;;;;;;;;;;;
2022/08/17 12:26:46;;;;;;;;;;;;;;;;;;;;;
2022/08/17 12:29:37;;;;;;;4.90;4.40;;;;;;;28.05;45.51;98935.78;4942790;28;20485;-93
2022/08/17 12:32:50;;;;;;;;;;;;;;;;;;;;;
2022/08/17 12:36:03;;;;;;;;;;;;;;;;;;;;;
2022/08/17 12:45:38;;;;;;;4.33;3.93;;;;;;;28.79;42.72;98920.19;4947485;28;20483;-92
2022/08/17 12:48:09;;;;;;;4.50;4.10;;;;;;;28.89;41.80;98904.22;4957073;28;20450;-93
2022/08/17 12:50:55;;;;;;;4.47;4.10;;;;;;;29.03;40.99;98904.81;4951279;28;21059;-87
2022/08/17 12:53:34;;;;;;;4.23;3.93;;;;;;;29.16;40.06;98908.38;4946161;28;20462;-86
2022/08/17 12:56:12;;;;;;;3.87;3.33;;;;;;;29.26;39.78;98906.72;4956503;28;20500;-89
2022/08/17 12:58:54;;;;;;;4.13;3.13;;;;;;;29.28;38.55;98911.91;4942600;28;20910;-89
2022/08/17 13:01:23;;;;;;;4.03;3.27;;;;;;;29.28;37.78;98898.38;4946087;28;20586;-88
2022/08/17 13:03:52;;;;;;;2.83;2.63;;;;;;;29.26;37.09;98889.66;4946034;28;20460;-88
2022/08/17 13:06:34;;;;;;;3.23;3.03;;;;;;;29.31;36.49;98887.91;4945842;28;21398;-87
2022/08/17 13:09:29;;;;;;;2.80;2.60;;;;;;;29.35;35.97;98885.53;4942870;28;20507;-87
2022/08/17 13:12:00;;;;;;;3.60;3.30;;;;;;;29.40;36.00;98882.94;4943275;28;20539;-88
2022/08/17 13:14:27;;;;;;;2.77;2.57;;;;;;;29.42;35.80;98882.72;4944762;28;20745;-88
2022/08/17 13:20:16;;;;;;;3.53;2.67;;;;;;;29.38;36.40;98885.09;4952307;28;20444;-94
2022/08/17 13:22:51;;;;;;;3.57;3.30;;;;;;;29.33;36.68;98874.16;4955344;28;20469;-93
2022/08/17 13:25:20;;;;;;;3.77;3.47;;;;;;;29.29;36.56;98865.66;4946692;28;20854;-92
2022/08/17 13:27:58;;;;;;;3.30;3.00;;;;;;;29.26;35.91;98868.84;4946780;28;20481;-92
2022/08/17 13:30:31;;;;;;;3.37;3.10;;;;;;;29.22;36.21;98862.28;4949761;28;20986;-92
2022/08/17 13:33:24;;;;;;;3.03;2.70;;;;;;;29.23;36.02;98866.63;4947427;28;20461;-90
2022/08/17 13:35:51;;;;;;;3.30;3.10;;;;;;;29.27;36.04;98858.84;4947982;28;20457;-92
2022/08/17 13:38:48;;;;;;;3.10;2.90;;;;;;;29.34;36.72;98854.13;4942138;28;20541;-91
2022/08/17 13:41:36;;;;;;;3.80;3.50;;;;;;;29.37;37.26;98864.47;4948112;28;20469;-91
2022/08/17 13:44:28;;;;;;;6.13;5.63;;;;;;;29.42;37.85;98853.78;4945091;28;20521;-90
2022/08/17 13:46:54;;;;;;;6.30;5.70;;;;;;;29.45;38.12;98841.66;4946743;28;20474;-90
2022/08/17 13:49:20;;;;;;;7.50;6.90;;;;;;;29.44;38.50;98832.72;4950892;28;20466;-89
2022/08/17 13:51:48;;;;;;;6.30;5.80;;;;;;;29.42;38.92;98828.59;4970866;28;20303;-92
2022/08/17 13:54:43;;;;;;;6.40;5.83;;;;;;;29.37;39.88;98825.78;4951215;28;20468;-91
2022/08/17 13:57:23;;;;;;;5.97;5.27;;;;;;;29.34;39.88;98821.69;4967253;28;20529;-92
2022/08/17 13:59:53;;;;;;;4.20;3.80;;;;;;;29.28;39.63;98823.47;4952614;28;20468;-92
2022/08/17 14:02:22;;;;;;;4.83;3.40;;;;;;;29.23;39.67;98817.94;4954645;28;20476;-91
2022/08/17 14:04:47;;;;;;;4.47;4.07;;;;;;;29.18;39.48;98817.81;4955420;28;20487;-90
2022/08/17 14:07:24;;;;;;;3.20;2.90;;;;;;;29.09;39.70;98817.38;4958088;28;20498;-90
2022/08/17 14:09:57;;;;;;;3.27;3.07;;;;;;;29.01;40.34;98814.19;4948952;28;20238;-90
2022/08/17 14:12:35;;;;;;;5.67;3.80;;;;;;;28.94;40.77;98814.28;4950346;28;20436;-90
2022/08/17 14:15:01;;;;;;;5.17;4.20;;;;;;;28.89;41.04;98831.25;4951785;28;20449;-91
2022/08/17 14:17:30;;;;;;;3.33;3.03;;;;;;;28.89;41.27;98836.66;4944419;28;20469;-90
2022/08/17 14:19:57;;;;;;;4.27;3.20;;;;;;;28.87;41.55;98848.75;4948168;28;20460;-91